Barfleur — FNIE — position and weather

sailwx.info

Track history (hours):
 
Tides and Currents Weather Stations Pressure Air Temp Water Temp Dewpoint Dewpoint Depression Visibility Wind Speed Wind Dir Waves Ship Positions

Barfleur

Operator: Brittany Ferries

Last reported at 2016-May-30 08:23 UTC. Time now 2016-May-30 16:17 UTC.
Position N 50°31' W 001°52'.

Length 158 m; draft 5 m.

Type: Passenger vessel. MMSI: 227289000.

Date/timePositionNaut miles runAvg speedWind from/ knotsBaromVisibWave heightAir tempDewpointWater temp
2016-May-30 08:23N 50°31' W 001°52'1215.0
2016-May-30 07:34N 50°42' W 001°58'1 0.6
2016-May-30 06:33N 50°42' W 001°59'0 0.0
2016-May-30 05:33N 50°42' W 001°59'0 0.0
2016-May-30 04:34N 50°42' W 001°59'0 0.0
2016-May-30 03:33N 50°42' W 001°59'0 0.0
2016-May-30 02:33N 50°42' W 001°59'0 0.0
2016-May-30 01:33N 50°42' W 001°59'0 0.0
2016-May-30 00:33N 50°42' W 001°59'0 0.0
2016-May-29 23:33N 50°42' W 001°59'0 0.0
2016-May-29 22:33N 50°42' W 001°59'0 0.0
2016-May-29 21:34N 50°42' W 001°59'0 0.1
2016-May-29 20:33N 50°42' W 001°59'1413.0
2016-May-29 19:31N 50°30' W 001°51'2 0.2
2016-May-29 08:31N 50°28' W 001°51'1515.5
2016-May-29 07:33N 50°42' W 001°58'1 0.6
2016-May-29 06:33N 50°42' W 001°59'0 0.0
2016-May-29 05:33N 50°42' W 001°59'0 0.0
2016-May-29 04:33N 50°42' W 001°59'0 0.0
2016-May-29 03:33N 50°42' W 001°59'0 0.0
2016-May-29 02:33N 50°42' W 001°59'0 0.0
2016-May-29 01:33N 50°42' W 001°59'0 0.0
2016-May-29 00:33N 50°42' W 001°59'0 0.0
2016-May-28 23:33N 50°42' W 001°59'0 0.0
2016-May-28 22:33N 50°42' W 001°59'0 0.0
2016-May-28 21:33N 50°42' W 001°59'0 0.1
2016-May-28 20:34N 50°42' W 001°60'1211.8
2016-May-28 19:32N 50°32' W 001°51'1 0.1
2016-May-28 08:32N 50°31' W 001°51'1313.2
2016-May-28 07:33N 50°42' W 001°59'0 0.0
2016-May-28 06:33N 50°42' W 001°59'0 0.0
2016-May-28 05:33N 50°42' W 001°59'0 0.0
2016-May-28 04:33N 50°42' W 001°59'0 0.0
2016-May-28 03:33N 50°42' W 001°59'0 0.0
2016-May-28 02:33N 50°42' W 001°59'0 0.0
2016-May-28 01:33N 50°42' W 001°59'0 0.0
2016-May-28 00:33N 50°42' W 001°59'0 0.0
2016-May-27 23:33N 50°42' W 001°59'0 0.0
2016-May-27 22:33N 50°42' W 001°59'0 0.0
2016-May-27 21:33N 50°42' W 001°59'0 0.1
2016-May-27 20:33N 50°42' W 001°59'4116.7
2016-May-27 18:05N 50°03' W 001°40'20 2.9
2016-May-27 11:11N 49°43' W 001°35'1919.0
2016-May-27 10:12N 50°01' W 001°44'3018.3
2016-May-27 08:33N 50°31' W 001°52'1212.5
2016-May-27 07:33N 50°42' W 001°59'0 0.0
2016-May-27 06:33N 50°42' W 001°59'0 0.0
2016-May-27 05:33N 50°42' W 001°59'0 0.0
2016-May-27 04:33N 50°42' W 001°59'0 0.0
2016-May-27 03:33N 50°42' W 001°59'0 0.0
2016-May-27 02:33N 50°42' W 001°59'0 0.0
2016-May-27 01:33N 50°42' W 001°59'0 0.0
2016-May-27 00:33N 50°42' W 001°59'0 0.0
2016-May-26 23:33N 50°42' W 001°59'0 0.0
2016-May-26 22:33N 50°42' W 001°59'0 0.0
2016-May-26 21:34N 50°42' W 001°59'1212.4
2016-May-26 20:33N 50°31' W 001°51'2318.7
2016-May-26 19:20N 50°08' W 001°45'25 2.8
2016-May-26 10:33N 50°33' W 001°50'1111.1
2016-May-26 09:33N 50°42' W 001°59'0 0.0
2016-May-26 08:33N 50°42' W 001°59'0 0.0
2016-May-26 07:33N 50°42' W 001°59'0 0.0
2016-May-26 06:33N 50°42' W 001°59'0 0.0
2016-May-26 05:33N 50°42' W 001°59'0 0.0
2016-May-26 04:34N 50°42' W 001°59'0 0.0
2016-May-26 03:33N 50°42' W 001°59'0 0.0
2016-May-26 02:33N 50°42' W 001°59'0 0.0
2016-May-26 01:34N 50°42' W 001°59'0 0.0
2016-May-26 00:33N 50°42' W 001°59'0 0.0
2016-May-25 23:33N 50°42' W 001°59'0 0.0
2016-May-25 22:33N 50°42' W 001°59'0 0.0
2016-May-25 21:33N 50°42' W 001°59'2 1.6
2016-May-25 20:34N 50°42' W 001°57'12 1.0
2016-May-25 08:33N 50°31' W 001°51'1312.9
2016-May-25 07:34N 50°42' W 001°59'0 0.1
2016-May-25 06:34N 50°42' W 001°59'2 1.7
2016-May-25 05:33N 50°42' W 001°57'9 9.4
2016-May-25 04:33N 50°34' W 001°49'4 3.6
2016-May-25 03:33N 50°31' W 001°52'1 0.0
2016-May-24 08:33N 50°30' W 001°53'1313.0
2016-May-24 07:33N 50°42' W 001°59'0 0.2
2016-May-24 06:33N 50°42' W 001°59'0 0.0
2016-May-24 05:33N 50°42' W 001°59'0 0.0
2016-May-24 04:33N 50°42' W 001°59'0 0.0
2016-May-24 03:33N 50°42' W 001°59'0 0.0
2016-May-24 02:33N 50°42' W 001°59'0 0.0
2016-May-24 01:33N 50°42' W 001°59'0 0.0
2016-May-24 00:33N 50°42' W 001°59'0 0.0
2016-May-23 23:33N 50°42' W 001°59'0 0.0
2016-May-23 22:33N 50°42' W 001°59'0 0.0
2016-May-23 21:33N 50°42' W 001°59'0 0.3
2016-May-23 20:34N 50°42' W 001°59'1414.4
2016-May-23 19:33N 50°29' W 001°52'2418.3
2016-May-23 18:14N 50°05' W 001°46'1218.3
2016-May-23 17:33N 49°53' W 001°43'9 1.2
2016-May-23 10:31N 49°60' W 001°35'3216.3
2016-May-23 08:32N 50°30' W 001°51'1313.5
2016-May-23 07:34N 50°42' W 001°59'0 0.2
2016-May-23 06:34N 50°42' W 001°59'0 0.0
2016-May-23 05:33N 50°42' W 001°59'0 0.0
2016-May-23 04:34N 50°42' W 001°59'0 0.0
2016-May-23 03:34N 50°42' W 001°59'0 0.0
2016-May-23 02:34N 50°42' W 001°59'0 0.0
2016-May-23 01:34N 50°42' W 001°59'0 0.0
2016-May-23 00:34N 50°42' W 001°59'0 0.0
2016-May-22 23:34N 50°42' W 001°59'0 0.0
2016-May-22 22:34N 50°42' W 001°59'0 0.0
2016-May-22 21:34N 50°42' W 001°59'0 0.1
2016-May-22 20:34N 50°42' W 001°59'1413.9
2016-May-22 19:34N 50°29' W 001°54'1818.1
2016-May-22 18:34N 50°11' W 001°50'17 1.7
2016-May-22 08:33N 50°28' W 001°51'1414.6
2016-May-22 07:33N 50°42' W 001°58'1 1.1
2016-May-22 06:33N 50°42' W 001°59'0 0.0
2016-May-22 05:33N 50°42' W 001°59'0 0.0
2016-May-22 04:33N 50°42' W 001°59'0 0.0
2016-May-22 03:33N 50°42' W 001°59'0 0.0
2016-May-22 02:33N 50°42' W 001°59'0 0.0
2016-May-22 01:33N 50°42' W 001°59'0 0.0
2016-May-22 00:34N 50°42' W 001°59'0 0.0
2016-May-21 23:33N 50°42' W 001°59'0 0.0
2016-May-21 22:34N 50°42' W 001°59'0 0.0
2016-May-21 21:34N 50°42' W 001°59'0 0.2
2016-May-21 20:33N 50°42' W 001°59'1414.0
2016-May-21 19:33N 50°29' W 001°52'1 0.1
2016-May-21 08:26N 50°29' W 001°50'1415.5
2016-May-21 07:33N 50°42' W 001°57'2 1.7
2016-May-21 06:33N 50°42' W 001°59'0 0.0
2016-May-21 05:33N 50°42' W 001°59'0 0.0
2016-May-21 04:33N 50°42' W 001°59'0 0.0
2016-May-21 03:33N 50°42' W 001°59'0 0.0
2016-May-21 02:33N 50°42' W 001°59'0 0.0
2016-May-21 01:33N 50°42' W 001°59'0 0.0
2016-May-21 00:33N 50°42' W 001°59'0 0.0
2016-May-20 23:33N 50°42' W 001°59'0 0.0
2016-May-20 22:33N 50°42' W 001°59'0 0.0
2016-May-20 21:33N 50°42' W 001°59'0 0.1
2016-May-20 20:34N 50°42' W 001°60'1413.8
2016-May-20 19:33N 50°29' W 001°52'35 3.9
2016-May-20 10:32N 49°55' W 001°42'3618.4
2016-May-20 08:33N 50°30' W 001°53'  
Track history (hours):
 
Tides and Currents Weather Stations Pressure Air Temp Water Temp Dewpoint Dewpoint Depression Visibility Wind Speed Wind Dir Waves Ship Positions

Barfleur

Operator: Brittany Ferries

Last reported at 2016-May-30 08:23 UTC. Time now 2016-May-30 16:17 UTC.
Position N 50°31' W 001°52'.

Length 158 m; draft 5 m.

Type: Passenger vessel. MMSI: 227289000.

Date/timePositionNaut miles runAvg speedWind from/ knotsBaromVisibWave heightAir tempDewpointWater temp
2016-May-30 08:23N 50°31' W 001°52'1215.0
2016-May-30 07:34N 50°42' W 001°58'1 0.6
2016-May-30 06:33N 50°42' W 001°59'0 0.0
2016-May-30 05:33N 50°42' W 001°59'0 0.0
2016-May-30 04:34N 50°42' W 001°59'0 0.0
2016-May-30 03:33N 50°42' W 001°59'0 0.0
2016-May-30 02:33N 50°42' W 001°59'0 0.0
2016-May-30 01:33N 50°42' W 001°59'0 0.0
2016-May-30 00:33N 50°42' W 001°59'0 0.0
2016-May-29 23:33N 50°42' W 001°59'0 0.0
2016-May-29 22:33N 50°42' W 001°59'0 0.0
2016-May-29 21:34N 50°42' W 001°59'0 0.1
2016-May-29 20:33N 50°42' W 001°59'1413.0
2016-May-29 19:31N 50°30' W 001°51'2 0.2
2016-May-29 08:31N 50°28' W 001°51'1515.5
2016-May-29 07:33N 50°42' W 001°58'1 0.6
2016-May-29 06:33N 50°42' W 001°59'0 0.0
2016-May-29 05:33N 50°42' W 001°59'0 0.0
2016-May-29 04:33N 50°42' W 001°59'0 0.0
2016-May-29 03:33N 50°42' W 001°59'0 0.0
2016-May-29 02:33N 50°42' W 001°59'0 0.0
2016-May-29 01:33N 50°42' W 001°59'0 0.0
2016-May-29 00:33N 50°42' W 001°59'0 0.0
2016-May-28 23:33N 50°42' W 001°59'0 0.0
2016-May-28 22:33N 50°42' W 001°59'0 0.0
2016-May-28 21:33N 50°42' W 001°59'0 0.1
2016-May-28 20:34N 50°42' W 001°60'1211.8
2016-May-28 19:32N 50°32' W 001°51'1 0.1
2016-May-28 08:32N 50°31' W 001°51'1313.2
2016-May-28 07:33N 50°42' W 001°59'0 0.0
2016-May-28 06:33N 50°42' W 001°59'0 0.0
2016-May-28 05:33N 50°42' W 001°59'0 0.0
2016-May-28 04:33N 50°42' W 001°59'0 0.0
2016-May-28 03:33N 50°42' W 001°59'0 0.0
2016-May-28 02:33N 50°42' W 001°59'0 0.0
2016-May-28 01:33N 50°42' W 001°59'0 0.0
2016-May-28 00:33N 50°42' W 001°59'0 0.0
2016-May-27 23:33N 50°42' W 001°59'0 0.0
2016-May-27 22:33N 50°42' W 001°59'0 0.0
2016-May-27 21:33N 50°42' W 001°59'0 0.1
2016-May-27 20:33N 50°42' W 001°59'4116.7
2016-May-27 18:05N 50°03' W 001°40'20 2.9
2016-May-27 11:11N 49°43' W 001°35'1919.0
2016-May-27 10:12N 50°01' W 001°44'3018.3
2016-May-27 08:33N 50°31' W 001°52'1212.5
2016-May-27 07:33N 50°42' W 001°59'0 0.0
2016-May-27 06:33N 50°42' W 001°59'0 0.0
2016-May-27 05:33N 50°42' W 001°59'0 0.0
2016-May-27 04:33N 50°42' W 001°59'0 0.0
2016-May-27 03:33N 50°42' W 001°59'0 0.0
2016-May-27 02:33N 50°42' W 001°59'0 0.0
2016-May-27 01:33N 50°42' W 001°59'0 0.0
2016-May-27 00:33N 50°42' W 001°59'0 0.0
2016-May-26 23:33N 50°42' W 001°59'0 0.0
2016-May-26 22:33N 50°42' W 001°59'0 0.0
2016-May-26 21:34N 50°42' W 001°59'1212.4
2016-May-26 20:33N 50°31' W 001°51'2318.7
2016-May-26 19:20N 50°08' W 001°45'25 2.8
2016-May-26 10:33N 50°33' W 001°50'1111.1
2016-May-26 09:33N 50°42' W 001°59'0 0.0
2016-May-26 08:33N 50°42' W 001°59'0 0.0
2016-May-26 07:33N 50°42' W 001°59'0 0.0
2016-May-26 06:33N 50°42' W 001°59'0 0.0
2016-May-26 05:33N 50°42' W 001°59'0 0.0
2016-May-26 04:34N 50°42' W 001°59'0 0.0
2016-May-26 03:33N 50°42' W 001°59'0 0.0
2016-May-26 02:33N 50°42' W 001°59'0 0.0
2016-May-26 01:34N 50°42' W 001°59'0 0.0
2016-May-26 00:33N 50°42' W 001°59'0 0.0
2016-May-25 23:33N 50°42' W 001°59'0 0.0
2016-May-25 22:33N 50°42' W 001°59'0 0.0
2016-May-25 21:33N 50°42' W 001°59'2 1.6
2016-May-25 20:34N 50°42' W 001°57'12 1.0
2016-May-25 08:33N 50°31' W 001°51'1312.9
2016-May-25 07:34N 50°42' W 001°59'0 0.1
2016-May-25 06:34N 50°42' W 001°59'2 1.7
2016-May-25 05:33N 50°42' W 001°57'9 9.4
2016-May-25 04:33N 50°34' W 001°49'4 3.6
2016-May-25 03:33N 50°31' W 001°52'1 0.0
2016-May-24 08:33N 50°30' W 001°53'1313.0
2016-May-24 07:33N 50°42' W 001°59'0 0.2
2016-May-24 06:33N 50°42' W 001°59'0 0.0
2016-May-24 05:33N 50°42' W 001°59'0 0.0
2016-May-24 04:33N 50°42' W 001°59'0 0.0
2016-May-24 03:33N 50°42' W 001°59'0 0.0
2016-May-24 02:33N 50°42' W 001°59'0 0.0
2016-May-24 01:33N 50°42' W 001°59'0 0.0
2016-May-24 00:33N 50°42' W 001°59'0 0.0
2016-May-23 23:33N 50°42' W 001°59'0 0.0
2016-May-23 22:33N 50°42' W 001°59'0 0.0
2016-May-23 21:33N 50°42' W 001°59'0 0.3
2016-May-23 20:34N 50°42' W 001°59'1414.4
2016-May-23 19:33N 50°29' W 001°52'2418.3
2016-May-23 18:14N 50°05' W 001°46'1218.3
2016-May-23 17:33N 49°53' W 001°43'9 1.2
2016-May-23 10:31N 49°60' W 001°35'3216.3
2016-May-23 08:32N 50°30' W 001°51'1313.5
2016-May-23 07:34N 50°42' W 001°59'0 0.2
2016-May-23 06:34N 50°42' W 001°59'0 0.0
2016-May-23 05:33N 50°42' W 001°59'0 0.0
2016-May-23 04:34N 50°42' W 001°59'0 0.0
2016-May-23 03:34N 50°42' W 001°59'0 0.0
2016-May-23 02:34N 50°42' W 001°59'0 0.0
2016-May-23 01:34N 50°42' W 001°59'0 0.0
2016-May-23 00:34N 50°42' W 001°59'0 0.0
2016-May-22 23:34N 50°42' W 001°59'0 0.0
2016-May-22 22:34N 50°42' W 001°59'0 0.0
2016-May-22 21:34N 50°42' W 001°59'0 0.1
2016-May-22 20:34N 50°42' W 001°59'1413.9
2016-May-22 19:34N 50°29' W 001°54'1818.1
2016-May-22 18:34N 50°11' W 001°50'17 1.7
2016-May-22 08:33N 50°28' W 001°51'1414.6
2016-May-22 07:33N 50°42' W 001°58'1 1.1
2016-May-22 06:33N 50°42' W 001°59'0 0.0
2016-May-22 05:33N 50°42' W 001°59'0 0.0
2016-May-22 04:33N 50°42' W 001°59'0 0.0
2016-May-22 03:33N 50°42' W 001°59'0 0.0
2016-May-22 02:33N 50°42' W 001°59'0 0.0
2016-May-22 01:33N 50°42' W 001°59'0 0.0
2016-May-22 00:34N 50°42' W 001°59'0 0.0
2016-May-21 23:33N 50°42' W 001°59'0 0.0
2016-May-21 22:34N 50°42' W 001°59'0 0.0
2016-May-21 21:34N 50°42' W 001°59'0 0.2
2016-May-21 20:33N 50°42' W 001°59'1414.0
2016-May-21 19:33N 50°29' W 001°52'1 0.1
2016-May-21 08:26N 50°29' W 001°50'1415.5
2016-May-21 07:33N 50°42' W 001°57'2 1.7
2016-May-21 06:33N 50°42' W 001°59'0 0.0
2016-May-21 05:33N 50°42' W 001°59'0 0.0
2016-May-21 04:33N 50°42' W 001°59'0 0.0
2016-May-21 03:33N 50°42' W 001°59'0 0.0
2016-May-21 02:33N 50°42' W 001°59'0 0.0
2016-May-21 01:33N 50°42' W 001°59'0 0.0
2016-May-21 00:33N 50°42' W 001°59'0 0.0
2016-May-20 23:33N 50°42' W 001°59'0 0.0
2016-May-20 22:33N 50°42' W 001°59'0 0.0
2016-May-20 21:33N 50°42' W 001°59'0 0.1
2016-May-20 20:34N 50°42' W 001°60'1413.8
2016-May-20 19:33N 50°29' W 001°52'35 3.9
2016-May-20 10:32N 49°55' W 001°42'3618.4
2016-May-20 08:33N 50°30' W 001°53'  

Dump ship's entire track history